Spring Creek, Nevada
Current Conditions -  °F | °C
As of 6:56 PM on Tuesday 25 Nov 2014 (Local Time) from KEKO Reporting Station
Clear Clear  
Wind Chill: 37°   Ceiling: Unl
Heat Index: 37°   Visibility: 10mi
Dew Point: 29°   Wind: 3mph
Humidity: 73%   Direction: 270°W
Pressure: 30.41"   Gusts: NA
Location:  40.77°N, 115.64°W
Report Text: KEKO 260256Z AUTO 27003KT 10SM CLR 03/M02 A3041 RMK AO2 SLP313 T00281017 51007
Loading
Personal Weather Stations






























Interactive Weather Map New forecast layout! Learn more

10-Day Weather Forecast

Advertisements
Track Severe Weather on mobile